Satellite Beach, Florida
Current Conditions -  °F | °C
As of 10:58 PM on Friday 24 Oct 2014 (Local Time) from KCOF Reporting Station
Overcast Overcast  
Wind Chill: 75°   Ceiling: 4600
Heat Index: 75°   Visibility: 10mi
Dew Point: 58°   Wind: 7mph
Humidity: 57%   Direction: 10°N
Pressure: 29.95"   Gusts: NA
Location:  28.17°N, 80.6°W
Report Text: KCOF 250258Z AUTO 01006KT 10SM OVC046 24/15 A2995 RMK AO2 SLP146 T02370147 52011
Loading
Personal Weather Stations






























Interactive Weather Map
Tropical Storm Tracking
New forecast layout! Learn more

10-Day Weather Forecast

Advertisements
Track Severe Weather on mobile